sensor_id;sensor_type;location;lat;lon;timestamp;P1;durP1;ratioP1;P2;durP2;ratioP2
2874;SDS011;1445;52.600;13.328;2022-07-29T00:00:09;3.58;;;3.03;;
2874;SDS011;1445;52.600;13.328;2022-07-29T00:02:35;5.93;;;3.10;;
2874;SDS011;1445;52.600;13.328;2022-07-29T00:05:01;4.10;;;3.00;;
2874;SDS011;1445;52.600;13.328;2022-07-29T00:07:27;4.50;;;3.05;;
2874;SDS011;1445;52.600;13.328;2022-07-29T00:09:52;5.47;;;3.30;;
2874;SDS011;1445;52.600;13.328;2022-07-29T00:12:22;4.97;;;3.38;;
2874;SDS011;1445;52.600;13.328;2022-07-29T00:14:48;6.28;;;3.55;;
2874;SDS011;1445;52.600;13.328;2022-07-29T00:17:14;5.57;;;3.28;;
2874;SDS011;1445;52.600;13.328;2022-07-29T00:19:40;7.28;;;3.25;;
2874;SDS011;1445;52.600;13.328;2022-07-29T00:22:05;6.40;;;3.47;;
2874;SDS011;1445;52.600;13.328;2022-07-29T00:24:30;6.13;;;3.25;;
2874;SDS011;1445;52.600;13.328;2022-07-29T00:26:59;7.82;;;3.35;;
2874;SDS011;1445;52.600;13.328;2022-07-29T00:29:24;5.03;;;3.65;;
2874;SDS011;1445;52.600;13.328;2022-07-29T00:31:49;5.57;;;3.30;;
2874;SDS011;1445;52.600;13.328;2022-07-29T00:34:15;5.15;;;3.38;;
2874;SDS011;1445;52.600;13.328;2022-07-29T00:36:59;5.45;;;3.92;;
2874;SDS011;1445;52.600;13.328;2022-07-29T00:39:24;5.65;;;3.25;;
2874;SDS011;1445;52.600;13.328;2022-07-29T00:41:50;8.25;;;4.18;;
2874;SDS011;1445;52.600;13.328;2022-07-29T00:44:15;4.53;;;3.20;;
2874;SDS011;1445;52.600;13.328;2022-07-29T00:46:41;4.68;;;3.42;;
2874;SDS011;1445;52.600;13.328;2022-07-29T00:49:06;6.53;;;3.53;;
2874;SDS011;1445;52.600;13.328;2022-07-29T00:51:33;7.75;;;3.50;;
2874;SDS011;1445;52.600;13.328;2022-07-29T00:54:00;6.22;;;3.70;;
2874;SDS011;1445;52.600;13.328;2022-07-29T00:56:26;5.80;;;3.35;;
2874;SDS011;1445;52.600;13.328;2022-07-29T00:58:55;7.15;;;3.67;;
2874;SDS011;1445;52.600;13.328;2022-07-29T01:01:21;8.88;;;3.55;;
2874;SDS011;1445;52.600;13.328;2022-07-29T01:03:47;5.38;;;3.53;;
2874;SDS011;1445;52.600;13.328;2022-07-29T01:06:12;5.28;;;3.30;;
2874;SDS011;1445;52.600;13.328;2022-07-29T01:08:39;4.05;;;3.35;;
2874;SDS011;1445;52.600;13.328;2022-07-29T01:11:05;5.18;;;3.35;;
2874;SDS011;1445;52.600;13.328;2022-07-29T01:13:30;5.15;;;3.83;;
2874;SDS011;1445;52.600;13.328;2022-07-29T01:15:59;6.65;;;3.67;;
2874;SDS011;1445;52.600;13.328;2022-07-29T01:18:33;8.35;;;3.72;;
2874;SDS011;1445;52.600;13.328;2022-07-29T01:21:12;4.25;;;3.35;;
2874;SDS011;1445;52.600;13.328;2022-07-29T01:32:02;6.47;;;3.53;;
2874;SDS011;1445;52.600;13.328;2022-07-29T01:34:41;6.93;;;3.97;;
2874;SDS011;1445;52.600;13.328;2022-07-29T01:37:21;4.85;;;3.15;;
2874;SDS011;1445;52.600;13.328;2022-07-29T01:39:51;8.63;;;3.28;;
2874;SDS011;1445;52.600;13.328;2022-07-29T01:42:25;4.82;;;3.20;;
2874;SDS011;1445;52.600;13.328;2022-07-29T01:45:00;4.55;;;3.10;;
2874;SDS011;1445;52.600;13.328;2022-07-29T01:47:35;7.77;;;3.77;;
2874;SDS011;1445;52.600;13.328;2022-07-29T01:50:06;6.97;;;3.63;;
2874;SDS011;1445;52.600;13.328;2022-07-29T01:52:36;5.25;;;2.72;;
2874;SDS011;1445;52.600;13.328;2022-07-29T01:55:24;5.38;;;3.20;;
2874;SDS011;1445;52.600;13.328;2022-07-29T01:57:56;6.95;;;3.08;;
2874;SDS011;1445;52.600;13.328;2022-07-29T02:00:23;5.45;;;3.33;;
2874;SDS011;1445;52.600;13.328;2022-07-29T02:02:51;7.65;;;3.03;;
2874;SDS011;1445;52.600;13.328;2022-07-29T02:05:19;5.93;;;3.00;;
2874;SDS011;1445;52.600;13.328;2022-07-29T02:07:47;3.80;;;2.72;;
2874;SDS011;1445;52.600;13.328;2022-07-29T02:10:14;7.05;;;3.20;;
2874;SDS011;1445;52.600;13.328;2022-07-29T02:12:42;6.93;;;3.97;;
2874;SDS011;1445;52.600;13.328;2022-07-29T02:15:10;6.85;;;3.42;;
2874;SDS011;1445;52.600;13.328;2022-07-29T02:17:39;7.25;;;2.92;;
2874;SDS011;1445;52.600;13.328;2022-07-29T02:20:09;5.43;;;3.10;;
2874;SDS011;1445;52.600;13.328;2022-07-29T02:22:35;3.58;;;2.72;;
2874;SDS011;1445;52.600;13.328;2022-07-29T02:25:04;5.88;;;3.00;;
2874;SDS011;1445;52.600;13.328;2022-07-29T02:27:32;4.50;;;3.08;;
2874;SDS011;1445;52.600;13.328;2022-07-29T02:29:59;4.88;;;3.40;;
2874;SDS011;1445;52.600;13.328;2022-07-29T02:32:27;5.75;;;3.00;;
2874;SDS011;1445;52.600;13.328;2022-07-29T02:34:54;3.72;;;3.00;;
2874;SDS011;1445;52.600;13.328;2022-07-29T02:37:21;5.75;;;3.00;;
2874;SDS011;1445;52.600;13.328;2022-07-29T02:39:48;3.90;;;3.17;;
2874;SDS011;1445;52.600;13.328;2022-07-29T02:42:15;4.93;;;3.17;;
2874;SDS011;1445;52.600;13.328;2022-07-29T02:44:42;8.00;;;3.10;;
2874;SDS011;1445;52.600;13.328;2022-07-29T02:57:47;4.72;;;3.20;;
2874;SDS011;1445;52.600;13.328;2022-07-29T03:00:19;7.60;;;3.50;;
2874;SDS011;1445;52.600;13.328;2022-07-29T03:02:48;4.78;;;2.80;;
2874;SDS011;1445;52.600;13.328;2022-07-29T03:05:18;6.43;;;3.17;;
2874;SDS011;1445;52.600;13.328;2022-07-29T03:07:51;5.22;;;2.90;;
2874;SDS011;1445;52.600;13.328;2022-07-29T03:10:20;4.13;;;2.83;;
2874;SDS011;1445;52.600;13.328;2022-07-29T03:12:46;3.63;;;2.85;;
2874;SDS011;1445;52.600;13.328;2022-07-29T03:15:12;5.25;;;3.20;;
2874;SDS011;1445;52.600;13.328;2022-07-29T03:17:38;6.43;;;3.53;;
2874;SDS011;1445;52.600;13.328;2022-07-29T03:20:07;4.95;;;2.90;;
2874;SDS011;1445;52.600;13.328;2022-07-29T03:22:38;5.35;;;2.78;;
2874;SDS011;1445;52.600;13.328;2022-07-29T03:25:08;6.30;;;2.60;;
2874;SDS011;1445;52.600;13.328;2022-07-29T03:27:38;3.63;;;2.70;;
2874;SDS011;1445;52.600;13.328;2022-07-29T03:30:04;5.22;;;3.05;;
2874;SDS011;1445;52.600;13.328;2022-07-29T03:32:30;6.35;;;2.97;;
2874;SDS011;1445;52.600;13.328;2022-07-29T03:34:55;4.95;;;2.95;;
2874;SDS011;1445;52.600;13.328;2022-07-29T03:37:21;5.28;;;3.08;;
2874;SDS011;1445;52.600;13.328;2022-07-29T03:39:46;3.80;;;2.60;;
2874;SDS011;1445;52.600;13.328;2022-07-29T03:42:15;5.30;;;2.80;;
2874;SDS011;1445;52.600;13.328;2022-07-29T03:44:45;7.47;;;2.97;;
2874;SDS011;1445;52.600;13.328;2022-07-29T03:47:13;4.28;;;3.13;;
2874;SDS011;1445;52.600;13.328;2022-07-29T03:49:40;5.05;;;2.90;;
2874;SDS011;1445;52.600;13.328;2022-07-29T03:52:06;4.82;;;3.03;;
2874;SDS011;1445;52.600;13.328;2022-07-29T03:54:33;5.53;;;2.83;;
2874;SDS011;1445;52.600;13.328;2022-07-29T03:56:59;6.70;;;3.30;;
2874;SDS011;1445;52.600;13.328;2022-07-29T03:59:26;6.40;;;2.88;;
2874;SDS011;1445;52.600;13.328;2022-07-29T04:01:52;4.80;;;3.20;;
2874;SDS011;1445;52.600;13.328;2022-07-29T04:04:21;6.70;;;3.13;;
2874;SDS011;1445;52.600;13.328;2022-07-29T04:06:46;5.50;;;3.30;;
2874;SDS011;1445;52.600;13.328;2022-07-29T04:09:12;4.85;;;3.13;;
2874;SDS011;1445;52.600;13.328;2022-07-29T04:11:38;4.45;;;2.90;;
2874;SDS011;1445;52.600;13.328;2022-07-29T04:14:04;6.68;;;3.25;;
2874;SDS011;1445;52.600;13.328;2022-07-29T04:16:30;5.68;;;3.10;;
2874;SDS011;1445;52.600;13.328;2022-07-29T04:18:55;4.15;;;2.80;;
2874;SDS011;1445;52.600;13.328;2022-07-29T04:21:21;4.90;;;2.85;;
2874;SDS011;1445;52.600;13.328;2022-07-29T04:23:46;3.80;;;2.88;;
2874;SDS011;1445;52.600;13.328;2022-07-29T04:26:15;4.03;;;2.70;;
2874;SDS011;1445;52.600;13.328;2022-07-29T04:28:44;6.13;;;2.90;;
2874;SDS011;1445;52.600;13.328;2022-07-29T04:31:09;7.22;;;2.78;;
2874;SDS011;1445;52.600;13.328;2022-07-29T04:33:36;6.15;;;3.08;;
2874;SDS011;1445;52.600;13.328;2022-07-29T04:36:01;6.00;;;2.83;;
2874;SDS011;1445;52.600;13.328;2022-07-29T04:38:26;5.13;;;2.90;;
2874;SDS011;1445;52.600;13.328;2022-07-29T04:40:52;4.93;;;3.05;;
2874;SDS011;1445;52.600;13.328;2022-07-29T04:43:17;4.20;;;2.70;;
2874;SDS011;1445;52.600;13.328;2022-07-29T04:45:43;5.55;;;2.80;;
2874;SDS011;1445;52.600;13.328;2022-07-29T04:48:08;4.75;;;3.05;;
2874;SDS011;1445;52.600;13.328;2022-07-29T04:50:33;5.05;;;3.10;;
2874;SDS011;1445;52.600;13.328;2022-07-29T04:52:59;8.70;;;3.17;;
2874;SDS011;1445;52.600;13.328;2022-07-29T04:55:24;6.43;;;3.30;;
2874;SDS011;1445;52.600;13.328;2022-07-29T04:57:50;4.25;;;2.80;;
2874;SDS011;1445;52.600;13.328;2022-07-29T05:00:16;4.50;;;2.70;;
2874;SDS011;1445;52.600;13.328;2022-07-29T05:02:41;4.45;;;2.60;;
2874;SDS011;1445;52.600;13.328;2022-07-29T05:05:07;4.53;;;2.40;;
2874;SDS011;1445;52.600;13.328;2022-07-29T05:07:33;3.88;;;2.75;;
2874;SDS011;1445;52.600;13.328;2022-07-29T05:09:58;4.07;;;2.60;;
2874;SDS011;1445;52.600;13.328;2022-07-29T05:12:24;4.35;;;2.58;;
2874;SDS011;1445;52.600;13.328;2022-07-29T05:14:50;6.80;;;2.75;;
2874;SDS011;1445;52.600;13.328;2022-07-29T05:17:15;7.72;;;2.72;;
2874;SDS011;1445;52.600;13.328;2022-07-29T05:19:41;4.10;;;2.90;;
2874;SDS011;1445;52.600;13.328;2022-07-29T05:22:07;4.90;;;2.70;;
2874;SDS011;1445;52.600;13.328;2022-07-29T05:24:32;7.03;;;2.63;;
2874;SDS011;1445;52.600;13.328;2022-07-29T05:26:57;7.75;;;2.53;;
2874;SDS011;1445;52.600;13.328;2022-07-29T05:29:23;5.75;;;2.80;;
2874;SDS011;1445;52.600;13.328;2022-07-29T05:31:48;4.15;;;2.80;;
2874;SDS011;1445;52.600;13.328;2022-07-29T05:34:14;5.43;;;2.85;;
2874;SDS011;1445;52.600;13.328;2022-07-29T05:36:39;6.50;;;2.80;;
2874;SDS011;1445;52.600;13.328;2022-07-29T05:39:04;3.42;;;2.55;;
2874;SDS011;1445;52.600;13.328;2022-07-29T05:41:33;4.43;;;3.00;;
2874;SDS011;1445;52.600;13.328;2022-07-29T05:43:58;7.65;;;2.78;;
2874;SDS011;1445;52.600;13.328;2022-07-29T05:46:23;5.70;;;3.20;;
2874;SDS011;1445;52.600;13.328;2022-07-29T05:48:49;5.38;;;2.53;;
2874;SDS011;1445;52.600;13.328;2022-07-29T05:51:14;5.03;;;2.55;;
2874;SDS011;1445;52.600;13.328;2022-07-29T05:53:40;8.60;;;2.85;;
2874;SDS011;1445;52.600;13.328;2022-07-29T05:56:05;8.77;;;3.28;;
2874;SDS011;1445;52.600;13.328;2022-07-29T05:58:31;4.97;;;2.90;;
2874;SDS011;1445;52.600;13.328;2022-07-29T06:00:56;6.28;;;2.97;;
2874;SDS011;1445;52.600;13.328;2022-07-29T06:03:25;4.43;;;2.55;;
2874;SDS011;1445;52.600;13.328;2022-07-29T06:05:51;4.90;;;2.55;;
2874;SDS011;1445;52.600;13.328;2022-07-29T06:08:16;4.32;;;2.70;;
2874;SDS011;1445;52.600;13.328;2022-07-29T06:10:42;5.32;;;3.05;;
2874;SDS011;1445;52.600;13.328;2022-07-29T06:13:07;5.82;;;2.67;;
2874;SDS011;1445;52.600;13.328;2022-07-29T06:15:33;3.88;;;2.70;;
2874;SDS011;1445;52.600;13.328;2022-07-29T06:17:58;6.97;;;2.70;;
2874;SDS011;1445;52.600;13.328;2022-07-29T06:20:23;7.15;;;2.90;;
2874;SDS011;1445;52.600;13.328;2022-07-29T06:22:49;4.95;;;2.92;;
2874;SDS011;1445;52.600;13.328;2022-07-29T06:25:14;8.07;;;3.30;;
2874;SDS011;1445;52.600;13.328;2022-07-29T06:27:39;6.38;;;2.85;;
2874;SDS011;1445;52.600;13.328;2022-07-29T06:30:05;4.45;;;2.92;;
2874;SDS011;1445;52.600;13.328;2022-07-29T06:32:32;4.25;;;2.85;;
2874;SDS011;1445;52.600;13.328;2022-07-29T06:34:58;5.82;;;2.45;;
2874;SDS011;1445;52.600;13.328;2022-07-29T06:37:23;5.00;;;2.70;;
2874;SDS011;1445;52.600;13.328;2022-07-29T06:39:49;5.82;;;2.75;;
2874;SDS011;1445;52.600;13.328;2022-07-29T06:42:34;5.65;;;2.97;;
2874;SDS011;1445;52.600;13.328;2022-07-29T06:44:59;3.15;;;2.50;;
2874;SDS011;1445;52.600;13.328;2022-07-29T06:47:24;9.65;;;3.03;;
2874;SDS011;1445;52.600;13.328;2022-07-29T06:49:52;7.00;;;2.92;;
2874;SDS011;1445;52.600;13.328;2022-07-29T06:52:18;6.93;;;2.80;;
2874;SDS011;1445;52.600;13.328;2022-07-29T06:54:43;7.00;;;2.67;;
2874;SDS011;1445;52.600;13.328;2022-07-29T06:57:13;6.18;;;2.90;;
2874;SDS011;1445;52.600;13.328;2022-07-29T06:59:38;5.30;;;2.88;;
2874;SDS011;1445;52.600;13.328;2022-07-29T07:02:03;5.40;;;3.10;;
2874;SDS011;1445;52.600;13.328;2022-07-29T07:04:29;4.50;;;2.78;;
2874;SDS011;1445;52.600;13.328;2022-07-29T07:06:54;4.60;;;3.05;;
2874;SDS011;1445;52.600;13.328;2022-07-29T07:09:20;4.78;;;2.63;;
2874;SDS011;1445;52.600;13.328;2022-07-29T07:11:46;5.25;;;2.47;;
2874;SDS011;1445;52.600;13.328;2022-07-29T07:14:11;4.90;;;2.50;;
2874;SDS011;1445;52.600;13.328;2022-07-29T07:16:37;3.88;;;2.70;;
2874;SDS011;1445;52.600;13.328;2022-07-29T07:19:02;9.27;;;3.25;;
2874;SDS011;1445;52.600;13.328;2022-07-29T07:21:28;7.30;;;2.80;;
2874;SDS011;1445;52.600;13.328;2022-07-29T07:23:53;7.28;;;2.72;;
2874;SDS011;1445;52.600;13.328;2022-07-29T07:26:19;6.55;;;2.95;;
2874;SDS011;1445;52.600;13.328;2022-07-29T07:28:44;4.28;;;2.65;;
2874;SDS011;1445;52.600;13.328;2022-07-29T07:31:10;13.10;;;3.05;;
2874;SDS011;1445;52.600;13.328;2022-07-29T07:33:36;3.80;;;2.50;;
2874;SDS011;1445;52.600;13.328;2022-07-29T07:36:01;6.88;;;2.90;;
2874;SDS011;1445;52.600;13.328;2022-07-29T07:38:26;7.85;;;2.70;;
2874;SDS011;1445;52.600;13.328;2022-07-29T07:40:52;5.88;;;2.83;;
2874;SDS011;1445;52.600;13.328;2022-07-29T07:43:17;6.28;;;2.90;;
2874;SDS011;1445;52.600;13.328;2022-07-29T07:45:42;4.55;;;2.55;;
2874;SDS011;1445;52.600;13.328;2022-07-29T07:48:08;5.28;;;2.45;;
2874;SDS011;1445;52.600;13.328;2022-07-29T07:50:35;3.35;;;2.30;;
2874;SDS011;1445;52.600;13.328;2022-07-29T07:53:01;6.05;;;2.47;;
2874;SDS011;1445;52.600;13.328;2022-07-29T07:55:27;5.28;;;2.30;;
2874;SDS011;1445;52.600;13.328;2022-07-29T07:57:53;5.65;;;2.22;;
2874;SDS011;1445;52.600;13.328;2022-07-29T08:00:19;3.97;;;2.55;;
2874;SDS011;1445;52.600;13.328;2022-07-29T08:02:45;5.50;;;2.17;;
2874;SDS011;1445;52.600;13.328;2022-07-29T08:05:10;5.13;;;2.22;;
2874;SDS011;1445;52.600;13.328;2022-07-29T08:07:38;7.18;;;2.40;;
2874;SDS011;1445;52.600;13.328;2022-07-29T08:10:04;6.45;;;2.40;;
2874;SDS011;1445;52.600;13.328;2022-07-29T08:12:30;6.07;;;2.00;;
2874;SDS011;1445;52.600;13.328;2022-07-29T08:14:55;5.90;;;2.38;;
2874;SDS011;1445;52.600;13.328;2022-07-29T08:17:21;4.20;;;2.30;;
2874;SDS011;1445;52.600;13.328;2022-07-29T08:19:46;3.00;;;2.03;;
2874;SDS011;1445;52.600;13.328;2022-07-29T08:22:13;5.15;;;2.38;;
2874;SDS011;1445;52.600;13.328;2022-07-29T08:24:39;4.35;;;2.13;;
2874;SDS011;1445;52.600;13.328;2022-07-29T08:27:20;3.35;;;1.90;;
2874;SDS011;1445;52.600;13.328;2022-07-29T08:29:46;3.20;;;1.70;;
2874;SDS011;1445;52.600;13.328;2022-07-29T08:32:12;4.00;;;1.75;;
2874;SDS011;1445;52.600;13.328;2022-07-29T08:34:38;4.78;;;1.88;;
2874;SDS011;1445;52.600;13.328;2022-07-29T08:37:03;2.45;;;1.75;;
2874;SDS011;1445;52.600;13.328;2022-07-29T08:39:29;5.05;;;2.22;;
2874;SDS011;1445;52.600;13.328;2022-07-29T08:41:54;3.63;;;1.90;;
2874;SDS011;1445;52.600;13.328;2022-07-29T08:44:20;4.38;;;1.80;;
2874;SDS011;1445;52.600;13.328;2022-07-29T08:46:49;2.97;;;1.77;;
2874;SDS011;1445;52.600;13.328;2022-07-29T08:49:14;3.28;;;1.90;;
2874;SDS011;1445;52.600;13.328;2022-07-29T08:51:40;5.75;;;1.80;;
2874;SDS011;1445;52.600;13.328;2022-07-29T08:54:08;3.85;;;1.80;;
2874;SDS011;1445;52.600;13.328;2022-07-29T08:56:34;11.07;;;2.17;;
2874;SDS011;1445;52.600;13.328;2022-07-29T08:59:02;4.13;;;1.92;;
2874;SDS011;1445;52.600;13.328;2022-07-29T09:01:30;3.63;;;1.88;;
2874;SDS011;1445;52.600;13.328;2022-07-29T09:03:58;6.40;;;1.88;;
2874;SDS011;1445;52.600;13.328;2022-07-29T09:06:26;3.53;;;2.05;;
2874;SDS011;1445;52.600;13.328;2022-07-29T09:08:58;2.78;;;2.03;;
2874;SDS011;1445;52.600;13.328;2022-07-29T09:11:24;7.65;;;2.03;;
2874;SDS011;1445;52.600;13.328;2022-07-29T09:13:50;2.83;;;1.65;;
2874;SDS011;1445;52.600;13.328;2022-07-29T09:16:15;3.38;;;1.73;;
2874;SDS011;1445;52.600;13.328;2022-07-29T09:18:44;3.17;;;1.60;;
2874;SDS011;1445;52.600;13.328;2022-07-29T09:21:11;6.70;;;2.10;;
2874;SDS011;1445;52.600;13.328;2022-07-29T09:24:02;5.38;;;1.60;;
2874;SDS011;1445;52.600;13.328;2022-07-29T09:26:32;3.90;;;1.70;;
2874;SDS011;1445;52.600;13.328;2022-07-29T09:29:01;4.70;;;1.70;;
2874;SDS011;1445;52.600;13.328;2022-07-29T09:31:33;3.53;;;1.73;;
2874;SDS011;1445;52.600;13.328;2022-07-29T09:34:00;2.88;;;1.75;;
2874;SDS011;1445;52.600;13.328;2022-07-29T09:36:26;3.30;;;1.75;;
2874;SDS011;1445;52.600;13.328;2022-07-29T09:38:59;2.25;;;1.67;;
2874;SDS011;1445;52.600;13.328;2022-07-29T09:41:25;3.05;;;1.50;;
2874;SDS011;1445;52.600;13.328;2022-07-29T09:43:59;3.20;;;1.90;;
2874;SDS011;1445;52.600;13.328;2022-07-29T09:46:25;2.85;;;1.67;;
2874;SDS011;1445;52.600;13.328;2022-07-29T09:49:09;5.30;;;1.70;;
2874;SDS011;1445;52.600;13.328;2022-07-29T09:51:36;3.47;;;1.50;;
2874;SDS011;1445;52.600;13.328;2022-07-29T09:54:02;3.22;;;1.55;;
2874;SDS011;1445;52.600;13.328;2022-07-29T09:56:59;3.65;;;1.42;;
2874;SDS011;1445;52.600;13.328;2022-07-29T09:59:24;3.17;;;1.42;;
2874;SDS011;1445;52.600;13.328;2022-07-29T10:01:51;5.28;;;1.50;;
2874;SDS011;1445;52.600;13.328;2022-07-29T10:04:18;3.65;;;1.58;;
2874;SDS011;1445;52.600;13.328;2022-07-29T10:06:59;3.90;;;1.58;;
2874;SDS011;1445;52.600;13.328;2022-07-29T10:09:26;3.63;;;1.48;;
2874;SDS011;1445;52.600;13.328;2022-07-29T10:12:04;5.70;;;1.75;;
2874;SDS011;1445;52.600;13.328;2022-07-29T10:14:36;4.05;;;1.58;;
2874;SDS011;1445;52.600;13.328;2022-07-29T10:17:02;3.80;;;1.83;;
2874;SDS011;1445;52.600;13.328;2022-07-29T10:19:29;3.50;;;1.70;;
2874;SDS011;1445;52.600;13.328;2022-07-29T10:21:56;4.53;;;1.88;;
2874;SDS011;1445;52.600;13.328;2022-07-29T10:24:27;6.95;;;2.35;;
2874;SDS011;1445;52.600;13.328;2022-07-29T10:26:57;4.32;;;1.80;;
2874;SDS011;1445;52.600;13.328;2022-07-29T10:29:24;2.33;;;1.60;;
2874;SDS011;1445;52.600;13.328;2022-07-29T10:43:42;2.75;;;1.50;;
2874;SDS011;1445;52.600;13.328;2022-07-29T10:46:11;4.00;;;1.70;;
2874;SDS011;1445;52.600;13.328;2022-07-29T10:54:19;3.53;;;1.70;;
2874;SDS011;1445;52.600;13.328;2022-07-29T10:59:45;3.15;;;1.38;;
2874;SDS011;1445;52.600;13.328;2022-07-29T11:07:24;2.25;;;1.48;;
2874;SDS011;1445;52.600;13.328;2022-07-29T11:17:30;3.22;;;1.88;;
2874;SDS011;1445;52.600;13.328;2022-07-29T11:23:47;4.78;;;1.50;;
2874;SDS011;1445;52.600;13.328;2022-07-29T11:31:19;4.57;;;1.55;;
2874;SDS011;1445;52.600;13.328;2022-07-29T11:39:36;2.17;;;1.40;;
2874;SDS011;1445;52.600;13.328;2022-07-29T11:45:26;4.25;;;1.70;;
2874;SDS011;1445;52.600;13.328;2022-07-29T11:47:34;2.78;;;1.60;;
2874;SDS011;1445;52.600;13.328;2022-07-29T11:50:14;4.45;;;1.98;;
2874;SDS011;1445;52.600;13.328;2022-07-29T11:52:42;2.97;;;1.50;;
2874;SDS011;1445;52.600;13.328;2022-07-29T11:55:11;5.22;;;1.58;;
2874;SDS011;1445;52.600;13.328;2022-07-29T11:57:54;3.58;;;1.77;;
2874;SDS011;1445;52.600;13.328;2022-07-29T12:02:49;3.10;;;2.00;;
2874;SDS011;1445;52.600;13.328;2022-07-29T12:05:14;4.13;;;2.20;;
2874;SDS011;1445;52.600;13.328;2022-07-29T12:07:40;3.72;;;1.80;;
2874;SDS011;1445;52.600;13.328;2022-07-29T12:10:06;3.72;;;1.80;;
2874;SDS011;1445;52.600;13.328;2022-07-29T12:12:33;4.07;;;2.05;;
2874;SDS011;1445;52.600;13.328;2022-07-29T12:15:15;4.05;;;2.00;;
2874;SDS011;1445;52.600;13.328;2022-07-29T12:17:45;6.70;;;2.78;;
2874;SDS011;1445;52.600;13.328;2022-07-29T12:20:11;2.97;;;2.00;;
2874;SDS011;1445;52.600;13.328;2022-07-29T12:22:41;3.63;;;2.03;;
2874;SDS011;1445;52.600;13.328;2022-07-29T12:25:12;2.95;;;1.70;;
2874;SDS011;1445;52.600;13.328;2022-07-29T12:27:41;5.57;;;2.13;;
2874;SDS011;1445;52.600;13.328;2022-07-29T12:30:17;4.20;;;2.10;;
2874;SDS011;1445;52.600;13.328;2022-07-29T12:32:43;4.13;;;2.17;;
2874;SDS011;1445;52.600;13.328;2022-07-29T12:35:14;2.80;;;2.03;;
2874;SDS011;1445;52.600;13.328;2022-07-29T12:37:41;3.28;;;2.10;;
2874;SDS011;1445;52.600;13.328;2022-07-29T12:40:10;3.45;;;2.17;;
2874;SDS011;1445;52.600;13.328;2022-07-29T12:42:37;4.32;;;1.80;;
2874;SDS011;1445;52.600;13.328;2022-07-29T12:45:03;4.88;;;2.20;;
2874;SDS011;1445;52.600;13.328;2022-07-29T12:47:30;4.25;;;2.13;;
2874;SDS011;1445;52.600;13.328;2022-07-29T12:52:34;4.53;;;2.40;;
2874;SDS011;1445;52.600;13.328;2022-07-29T12:55:01;4.50;;;2.40;;
2874;SDS011;1445;52.600;13.328;2022-07-29T12:57:26;5.32;;;2.83;;
2874;SDS011;1445;52.600;13.328;2022-07-29T13:00:00;4.20;;;2.45;;
2874;SDS011;1445;52.600;13.328;2022-07-29T13:02:25;5.18;;;2.40;;
2874;SDS011;1445;52.600;13.328;2022-07-29T13:04:57;4.30;;;2.40;;
2874;SDS011;1445;52.600;13.328;2022-07-29T13:07:28;7.78;;;3.15;;
2874;SDS011;1445;52.600;13.328;2022-07-29T13:09:58;5.97;;;2.90;;
2874;SDS011;1445;52.600;13.328;2022-07-29T13:15:46;4.13;;;2.22;;
2874;SDS011;1445;52.600;13.328;2022-07-29T13:18:30;5.03;;;2.33;;
2874;SDS011;1445;52.600;13.328;2022-07-29T13:21:20;3.70;;;2.20;;
2874;SDS011;1445;52.600;13.328;2022-07-29T13:23:45;3.70;;;2.10;;
2874;SDS011;1445;52.600;13.328;2022-07-29T13:26:11;2.67;;;2.22;;
2874;SDS011;1445;52.600;13.328;2022-07-29T13:28:36;2.58;;;2.17;;
2874;SDS011;1445;52.600;13.328;2022-07-29T13:31:02;4.65;;;2.38;;
2874;SDS011;1445;52.600;13.328;2022-07-29T13:33:29;3.75;;;2.35;;
2874;SDS011;1445;52.600;13.328;2022-07-29T13:35:55;2.60;;;2.08;;
2874;SDS011;1445;52.600;13.328;2022-07-29T13:38:20;5.30;;;1.98;;
2874;SDS011;1445;52.600;13.328;2022-07-29T13:40:46;3.47;;;2.25;;
2874;SDS011;1445;52.600;13.328;2022-07-29T13:43:12;3.92;;;2.53;;
2874;SDS011;1445;52.600;13.328;2022-07-29T13:45:37;2.50;;;2.30;;
2874;SDS011;1445;52.600;13.328;2022-07-29T13:48:03;2.95;;;2.20;;
2874;SDS011;1445;52.600;13.328;2022-07-29T13:50:29;6.28;;;2.78;;
2874;SDS011;1445;52.600;13.328;2022-07-29T13:52:54;5.32;;;2.60;;
2874;SDS011;1445;52.600;13.328;2022-07-29T13:55:20;3.97;;;2.30;;
2874;SDS011;1445;52.600;13.328;2022-07-29T13:57:45;5.30;;;2.75;;
2874;SDS011;1445;52.600;13.328;2022-07-29T14:00:11;3.70;;;2.20;;
2874;SDS011;1445;52.600;13.328;2022-07-29T14:02:37;5.80;;;2.30;;
2874;SDS011;1445;52.600;13.328;2022-07-29T14:05:03;4.30;;;2.47;;
2874;SDS011;1445;52.600;13.328;2022-07-29T14:07:30;4.70;;;2.30;;
2874;SDS011;1445;52.600;13.328;2022-07-29T14:09:55;3.45;;;2.35;;
2874;SDS011;1445;52.600;13.328;2022-07-29T14:12:21;9.43;;;2.47;;
2874;SDS011;1445;52.600;13.328;2022-07-29T14:14:47;2.50;;;2.25;;
2874;SDS011;1445;52.600;13.328;2022-07-29T14:17:13;3.33;;;2.20;;
2874;SDS011;1445;52.600;13.328;2022-07-29T14:19:39;3.50;;;2.33;;
2874;SDS011;1445;52.600;13.328;2022-07-29T14:22:05;4.38;;;2.50;;
2874;SDS011;1445;52.600;13.328;2022-07-29T14:24:31;4.03;;;2.60;;
2874;SDS011;1445;52.600;13.328;2022-07-29T14:26:57;7.45;;;2.67;;
2874;SDS011;1445;52.600;13.328;2022-07-29T14:29:23;3.65;;;2.42;;
2874;SDS011;1445;52.600;13.328;2022-07-29T14:31:48;5.32;;;2.63;;
2874;SDS011;1445;52.600;13.328;2022-07-29T14:34:13;2.55;;;2.30;;
2874;SDS011;1445;52.600;13.328;2022-07-29T14:36:40;3.30;;;2.40;;
2874;SDS011;1445;52.600;13.328;2022-07-29T14:39:06;3.75;;;2.40;;
2874;SDS011;1445;52.600;13.328;2022-07-29T14:41:31;3.83;;;2.35;;
2874;SDS011;1445;52.600;13.328;2022-07-29T14:43:57;4.97;;;2.30;;
2874;SDS011;1445;52.600;13.328;2022-07-29T14:46:25;2.67;;;2.30;;
2874;SDS011;1445;52.600;13.328;2022-07-29T14:48:51;6.57;;;2.33;;
2874;SDS011;1445;52.600;13.328;2022-07-29T14:51:16;3.17;;;2.20;;
2874;SDS011;1445;52.600;13.328;2022-07-29T14:53:42;3.45;;;2.50;;
2874;SDS011;1445;52.600;13.328;2022-07-29T14:56:08;5.18;;;2.33;;
2874;SDS011;1445;52.600;13.328;2022-07-29T14:58:34;5.53;;;2.58;;
2874;SDS011;1445;52.600;13.328;2022-07-29T15:00:59;6.13;;;2.42;;
2874;SDS011;1445;52.600;13.328;2022-07-29T15:03:25;5.55;;;2.58;;
2874;SDS011;1445;52.600;13.328;2022-07-29T15:05:52;3.38;;;2.45;;
2874;SDS011;1445;52.600;13.328;2022-07-29T15:08:18;4.63;;;2.88;;
2874;SDS011;1445;52.600;13.328;2022-07-29T15:10:43;5.85;;;2.78;;
2874;SDS011;1445;52.600;13.328;2022-07-29T15:13:08;5.22;;;2.80;;
2874;SDS011;1445;52.600;13.328;2022-07-29T15:15:34;3.92;;;2.45;;
2874;SDS011;1445;52.600;13.328;2022-07-29T15:17:59;4.75;;;2.35;;
2874;SDS011;1445;52.600;13.328;2022-07-29T15:20:25;4.65;;;2.58;;
2874;SDS011;1445;52.600;13.328;2022-07-29T15:22:52;5.38;;;2.40;;
2874;SDS011;1445;52.600;13.328;2022-07-29T15:25:17;5.63;;;2.72;;
2874;SDS011;1445;52.600;13.328;2022-07-29T15:27:43;2.47;;;2.28;;
2874;SDS011;1445;52.600;13.328;2022-07-29T15:30:09;3.72;;;2.67;;
2874;SDS011;1445;52.600;13.328;2022-07-29T15:32:35;8.30;;;2.83;;
2874;SDS011;1445;52.600;13.328;2022-07-29T15:35:00;4.97;;;2.45;;
2874;SDS011;1445;52.600;13.328;2022-07-29T15:37:26;5.05;;;2.83;;
2874;SDS011;1445;52.600;13.328;2022-07-29T15:39:53;6.05;;;2.85;;
2874;SDS011;1445;52.600;13.328;2022-07-29T15:42:18;3.42;;;2.80;;
2874;SDS011;1445;52.600;13.328;2022-07-29T15:44:44;4.57;;;2.35;;
2874;SDS011;1445;52.600;13.328;2022-07-29T15:47:09;3.67;;;2.40;;
2874;SDS011;1445;52.600;13.328;2022-07-29T15:49:35;4.35;;;2.50;;
2874;SDS011;1445;52.600;13.328;2022-07-29T15:52:05;4.22;;;2.55;;
2874;SDS011;1445;52.600;13.328;2022-07-29T15:54:33;6.80;;;2.58;;
2874;SDS011;1445;52.600;13.328;2022-07-29T15:57:00;3.63;;;2.30;;
2874;SDS011;1445;52.600;13.328;2022-07-29T15:59:26;4.63;;;2.45;;
2874;SDS011;1445;52.600;13.328;2022-07-29T16:01:52;4.47;;;2.50;;
2874;SDS011;1445;52.600;13.328;2022-07-29T16:04:17;3.08;;;2.20;;
2874;SDS011;1445;52.600;13.328;2022-07-29T16:06:44;4.45;;;2.28;;
2874;SDS011;1445;52.600;13.328;2022-07-29T16:09:10;3.15;;;2.22;;
2874;SDS011;1445;52.600;13.328;2022-07-29T16:11:36;6.60;;;2.38;;
2874;SDS011;1445;52.600;13.328;2022-07-29T16:14:02;5.78;;;2.58;;
2874;SDS011;1445;52.600;13.328;2022-07-29T16:16:29;4.25;;;2.20;;
2874;SDS011;1445;52.600;13.328;2022-07-29T16:18:54;4.70;;;2.20;;